sensor_id;sensor_type;location;lat;lon;timestamp;temperature;humidity
70244;DHT22;57634;51.136;17.024;2022-07-29T00:00:18;18.10;44.90
70244;DHT22;57634;51.136;17.024;2022-07-29T00:03:52;18.00;45.00
70244;DHT22;57634;51.136;17.024;2022-07-29T00:06:53;18.00;45.20
70244;DHT22;57634;51.136;17.024;2022-07-29T00:09:55;18.00;45.40
70244;DHT22;57634;51.136;17.024;2022-07-29T00:12:56;18.00;45.60
70244;DHT22;57634;51.136;17.024;2022-07-29T00:15:58;17.90;45.80
70244;DHT22;57634;51.136;17.024;2022-07-29T00:18:59;17.90;45.90
70244;DHT22;57634;51.136;17.024;2022-07-29T00:22:01;17.90;46.00
70244;DHT22;57634;51.136;17.024;2022-07-29T00:25:05;17.90;46.20
70244;DHT22;57634;51.136;17.024;2022-07-29T00:28:06;17.90;46.20
70244;DHT22;57634;51.136;17.024;2022-07-29T00:31:08;17.90;46.30
70244;DHT22;57634;51.136;17.024;2022-07-29T00:34:09;17.90;46.40
70244;DHT22;57634;51.136;17.024;2022-07-29T00:37:49;17.90;46.40
70244;DHT22;57634;51.136;17.024;2022-07-29T00:40:50;17.90;46.60
70244;DHT22;57634;51.136;17.024;2022-07-29T00:43:51;17.80;46.80
70244;DHT22;57634;51.136;17.024;2022-07-29T00:46:53;17.80;46.80
70244;DHT22;57634;51.136;17.024;2022-07-29T00:49:54;17.80;47.00
70244;DHT22;57634;51.136;17.024;2022-07-29T00:52:56;17.80;47.10
70244;DHT22;57634;51.136;17.024;2022-07-29T00:55:57;17.80;47.20
70244;DHT22;57634;51.136;17.024;2022-07-29T00:59:00;17.80;47.30
70244;DHT22;57634;51.136;17.024;2022-07-29T01:02:02;17.80;47.40
70244;DHT22;57634;51.136;17.024;2022-07-29T01:05:05;17.80;47.40
70244;DHT22;57634;51.136;17.024;2022-07-29T01:08:08;17.80;47.50
70244;DHT22;57634;51.136;17.024;2022-07-29T01:11:09;17.80;47.50
70244;DHT22;57634;51.136;17.024;2022-07-29T01:14:12;17.70;47.60
70244;DHT22;57634;51.136;17.024;2022-07-29T01:17:44;17.70;47.60
70244;DHT22;57634;51.136;17.024;2022-07-29T01:30:58;17.50;48.40
70244;DHT22;57634;51.136;17.024;2022-07-29T01:34:03;17.50;48.80
70244;DHT22;57634;51.136;17.024;2022-07-29T01:40:22;17.40;49.00
70244;DHT22;57634;51.136;17.024;2022-07-29T01:43:34;17.40;49.20
70244;DHT22;57634;51.136;17.024;2022-07-29T01:46:39;17.30;49.30
70244;DHT22;57634;51.136;17.024;2022-07-29T01:50:11;17.30;49.50
70244;DHT22;57634;51.136;17.024;2022-07-29T01:53:18;17.20;49.80
70244;DHT22;57634;51.136;17.024;2022-07-29T01:56:24;17.10;50.10
70244;DHT22;57634;51.136;17.024;2022-07-29T01:59:33;17.10;50.30
70244;DHT22;57634;51.136;17.024;2022-07-29T02:02:39;17.10;50.40
70244;DHT22;57634;51.136;17.024;2022-07-29T02:05:43;17.10;50.50
70244;DHT22;57634;51.136;17.024;2022-07-29T02:08:47;17.00;50.50
70244;DHT22;57634;51.136;17.024;2022-07-29T02:12:19;17.00;50.70
70244;DHT22;57634;51.136;17.024;2022-07-29T02:15:24;17.00;51.00
70244;DHT22;57634;51.136;17.024;2022-07-29T02:18:28;17.00;51.20
70244;DHT22;57634;51.136;17.024;2022-07-29T02:21:32;17.00;51.30
70244;DHT22;57634;51.136;17.024;2022-07-29T02:24:37;16.90;51.30
70244;DHT22;57634;51.136;17.024;2022-07-29T02:27:42;16.90;51.40
70244;DHT22;57634;51.136;17.024;2022-07-29T02:30:44;16.90;51.60
70244;DHT22;57634;51.136;17.024;2022-07-29T02:33:47;16.80;51.70
70244;DHT22;57634;51.136;17.024;2022-07-29T02:36:50;16.90;51.90
70244;DHT22;57634;51.136;17.024;2022-07-29T02:40:20;16.80;52.00
70244;DHT22;57634;51.136;17.024;2022-07-29T02:43:22;16.70;52.30
70244;DHT22;57634;51.136;17.024;2022-07-29T02:46:31;16.70;52.60
70244;DHT22;57634;51.136;17.024;2022-07-29T02:56:13;16.50;53.20
70244;DHT22;57634;51.136;17.024;2022-07-29T02:59:42;16.50;53.40
70244;DHT22;57634;51.136;17.024;2022-07-29T03:02:45;16.40;53.70
70244;DHT22;57634;51.136;17.024;2022-07-29T03:05:54;16.40;53.90
70244;DHT22;57634;51.136;17.024;2022-07-29T03:08:57;16.40;54.10
70244;DHT22;57634;51.136;17.024;2022-07-29T03:12:00;16.30;54.30
70244;DHT22;57634;51.136;17.024;2022-07-29T03:15:02;16.30;54.50
70244;DHT22;57634;51.136;17.024;2022-07-29T03:18:06;16.20;54.40
70244;DHT22;57634;51.136;17.024;2022-07-29T03:21:09;16.20;54.60
70244;DHT22;57634;51.136;17.024;2022-07-29T03:27:48;16.30;54.70
70244;DHT22;57634;51.136;17.024;2022-07-29T03:30:50;16.30;54.80
70244;DHT22;57634;51.136;17.024;2022-07-29T03:33:51;16.30;54.90
70244;DHT22;57634;51.136;17.024;2022-07-29T03:36:53;16.30;54.90
70244;DHT22;57634;51.136;17.024;2022-07-29T03:39:56;16.40;55.00
70244;DHT22;57634;51.136;17.024;2022-07-29T03:42:59;16.40;54.90
70244;DHT22;57634;51.136;17.024;2022-07-29T03:46:01;16.50;54.80
70244;DHT22;57634;51.136;17.024;2022-07-29T03:49:04;16.60;54.80
70244;DHT22;57634;51.136;17.024;2022-07-29T03:52:09;16.80;54.50
70244;DHT22;57634;51.136;17.024;2022-07-29T03:55:11;17.00;54.00
70244;DHT22;57634;51.136;17.024;2022-07-29T03:58:14;17.10;53.60
70244;DHT22;57634;51.136;17.024;2022-07-29T04:01:17;17.20;53.40
70244;DHT22;57634;51.136;17.024;2022-07-29T04:04:44;17.20;53.20
70244;DHT22;57634;51.136;17.024;2022-07-29T04:07:48;17.40;53.10
70244;DHT22;57634;51.136;17.024;2022-07-29T04:10:49;17.40;52.90
70244;DHT22;57634;51.136;17.024;2022-07-29T04:13:52;17.60;52.70
70244;DHT22;57634;51.136;17.024;2022-07-29T04:16:54;17.80;52.50
70244;DHT22;57634;51.136;17.024;2022-07-29T04:19:55;18.20;51.80
70244;DHT22;57634;51.136;17.024;2022-07-29T04:22:57;18.50;51.20
70244;DHT22;57634;51.136;17.024;2022-07-29T04:25:58;19.00;50.30
70244;DHT22;57634;51.136;17.024;2022-07-29T04:29:01;19.40;49.40
70244;DHT22;57634;51.136;17.024;2022-07-29T04:32:03;19.80;48.10
70244;DHT22;57634;51.136;17.024;2022-07-29T04:35:05;20.20;47.30
70244;DHT22;57634;51.136;17.024;2022-07-29T04:38:06;20.80;46.50
70244;DHT22;57634;51.136;17.024;2022-07-29T04:41:08;21.40;45.40
70244;DHT22;57634;51.136;17.024;2022-07-29T04:44:35;22.10;44.10
70244;DHT22;57634;51.136;17.024;2022-07-29T04:47:37;22.80;42.50
70244;DHT22;57634;51.136;17.024;2022-07-29T04:50:39;23.50;41.10
70244;DHT22;57634;51.136;17.024;2022-07-29T04:53:41;24.30;39.40
70244;DHT22;57634;51.136;17.024;2022-07-29T04:56:42;25.00;37.70
70244;DHT22;57634;51.136;17.024;2022-07-29T04:59:44;25.60;36.60
70244;DHT22;57634;51.136;17.024;2022-07-29T05:02:45;26.30;35.40
70244;DHT22;57634;51.136;17.024;2022-07-29T05:05:47;26.80;33.90
70244;DHT22;57634;51.136;17.024;2022-07-29T05:08:48;26.70;33.30
70244;DHT22;57634;51.136;17.024;2022-07-29T05:11:49;26.40;33.50
70244;DHT22;57634;51.136;17.024;2022-07-29T05:14:51;26.10;33.70
70244;DHT22;57634;51.136;17.024;2022-07-29T05:17:53;25.80;33.80
70244;DHT22;57634;51.136;17.024;2022-07-29T05:20:54;25.30;33.90
70244;DHT22;57634;51.136;17.024;2022-07-29T05:23:56;24.60;34.80
70244;DHT22;57634;51.136;17.024;2022-07-29T05:27:24;24.00;35.90
70244;DHT22;57634;51.136;17.024;2022-07-29T05:30:25;23.40;36.90
70244;DHT22;57634;51.136;17.024;2022-07-29T05:33:27;22.70;37.90
70244;DHT22;57634;51.136;17.024;2022-07-29T05:36:28;22.10;39.30
70244;DHT22;57634;51.136;17.024;2022-07-29T05:39:30;21.60;40.50
70244;DHT22;57634;51.136;17.024;2022-07-29T05:42:31;21.30;41.40
70244;DHT22;57634;51.136;17.024;2022-07-29T05:45:32;21.20;42.30
70244;DHT22;57634;51.136;17.024;2022-07-29T05:48:34;21.60;42.10
70244;DHT22;57634;51.136;17.024;2022-07-29T05:51:36;21.90;41.70
70244;DHT22;57634;51.136;17.024;2022-07-29T05:54:37;22.50;41.50
70244;DHT22;57634;51.136;17.024;2022-07-29T05:57:38;23.40;40.60
70244;DHT22;57634;51.136;17.024;2022-07-29T06:00:40;24.60;39.00
70244;DHT22;57634;51.136;17.024;2022-07-29T06:03:42;25.50;36.30
70244;DHT22;57634;51.136;17.024;2022-07-29T06:06:43;25.50;35.20
70244;DHT22;57634;51.136;17.024;2022-07-29T06:10:13;25.20;35.50
70244;DHT22;57634;51.136;17.024;2022-07-29T06:13:14;25.00;35.90
70244;DHT22;57634;51.136;17.024;2022-07-29T06:16:17;25.30;36.10
70244;DHT22;57634;51.136;17.024;2022-07-29T06:19:18;26.20;35.20
70244;DHT22;57634;51.136;17.024;2022-07-29T06:22:19;27.00;33.60
70244;DHT22;57634;51.136;17.024;2022-07-29T06:25:21;27.30;32.50
70244;DHT22;57634;51.136;17.024;2022-07-29T06:28:22;27.50;32.30
70244;DHT22;57634;51.136;17.024;2022-07-29T06:31:24;27.50;31.60
70244;DHT22;57634;51.136;17.024;2022-07-29T06:34:25;27.30;31.70
70244;DHT22;57634;51.136;17.024;2022-07-29T06:37:27;27.30;32.30
70244;DHT22;57634;51.136;17.024;2022-07-29T06:40:28;27.90;31.80
70244;DHT22;57634;51.136;17.024;2022-07-29T06:44:09;28.20;30.60
70244;DHT22;57634;51.136;17.024;2022-07-29T06:47:10;28.20;30.40
70244;DHT22;57634;51.136;17.024;2022-07-29T06:50:12;27.90;30.30
70244;DHT22;57634;51.136;17.024;2022-07-29T06:53:14;27.70;31.00
70244;DHT22;57634;51.136;17.024;2022-07-29T06:56:16;27.50;31.20
70244;DHT22;57634;51.136;17.024;2022-07-29T06:59:17;27.70;31.30
70244;DHT22;57634;51.136;17.024;2022-07-29T07:02:19;27.90;31.00
70244;DHT22;57634;51.136;17.024;2022-07-29T07:05:20;27.80;30.50
70244;DHT22;57634;51.136;17.024;2022-07-29T07:08:22;27.50;30.70
70244;DHT22;57634;51.136;17.024;2022-07-29T07:11:24;26.80;31.10
70244;DHT22;57634;51.136;17.024;2022-07-29T07:14:26;26.30;31.70
70244;DHT22;57634;51.136;17.024;2022-07-29T07:17:28;25.70;32.50
70244;DHT22;57634;51.136;17.024;2022-07-29T07:20:30;25.60;33.30
70244;DHT22;57634;51.136;17.024;2022-07-29T07:23:59;25.80;33.70
70244;DHT22;57634;51.136;17.024;2022-07-29T07:27:01;26.50;33.20
70244;DHT22;57634;51.136;17.024;2022-07-29T07:30:05;26.90;32.40
70244;DHT22;57634;51.136;17.024;2022-07-29T07:33:06;27.20;32.10
70244;DHT22;57634;51.136;17.024;2022-07-29T07:36:08;27.40;31.40
70244;DHT22;57634;51.136;17.024;2022-07-29T07:39:10;27.40;31.40
70244;DHT22;57634;51.136;17.024;2022-07-29T07:42:11;27.40;31.20
70244;DHT22;57634;51.136;17.024;2022-07-29T07:45:13;27.00;31.40
70244;DHT22;57634;51.136;17.024;2022-07-29T07:48:14;26.60;32.00
70244;DHT22;57634;51.136;17.024;2022-07-29T07:51:16;26.30;32.30
70244;DHT22;57634;51.136;17.024;2022-07-29T07:54:18;25.90;32.80
70244;DHT22;57634;51.136;17.024;2022-07-29T07:57:19;25.80;33.30
70244;DHT22;57634;51.136;17.024;2022-07-29T08:00:21;25.50;33.70
70244;DHT22;57634;51.136;17.024;2022-07-29T08:03:50;25.50;34.30
70244;DHT22;57634;51.136;17.024;2022-07-29T08:06:52;25.70;34.40
70244;DHT22;57634;51.136;17.024;2022-07-29T08:09:55;26.00;34.50
70244;DHT22;57634;51.136;17.024;2022-07-29T08:12:56;26.50;33.90
70244;DHT22;57634;51.136;17.024;2022-07-29T08:15:59;26.90;33.40
70244;DHT22;57634;51.136;17.024;2022-07-29T08:19:13;27.50;32.60
70244;DHT22;57634;51.136;17.024;2022-07-29T08:22:15;28.10;31.90
70244;DHT22;57634;51.136;17.024;2022-07-29T08:25:17;28.70;31.00
70244;DHT22;57634;51.136;17.024;2022-07-29T08:28:21;29.10;30.60
70244;DHT22;57634;51.136;17.024;2022-07-29T08:31:22;29.50;29.90
70244;DHT22;57634;51.136;17.024;2022-07-29T08:34:49;29.70;29.60
70244;DHT22;57634;51.136;17.024;2022-07-29T08:37:52;29.90;29.20
70244;DHT22;57634;51.136;17.024;2022-07-29T08:40:54;29.80;29.20
70244;DHT22;57634;51.136;17.024;2022-07-29T08:43:55;30.00;29.10
70244;DHT22;57634;51.136;17.024;2022-07-29T08:46:57;30.30;28.80
70244;DHT22;57634;51.136;17.024;2022-07-29T08:49:58;30.30;28.40
70244;DHT22;57634;51.136;17.024;2022-07-29T08:53:00;30.00;28.40
70244;DHT22;57634;51.136;17.024;2022-07-29T08:56:02;29.50;28.90
70244;DHT22;57634;51.136;17.024;2022-07-29T08:59:05;29.20;29.50
70244;DHT22;57634;51.136;17.024;2022-07-29T09:02:12;29.20;29.40
70244;DHT22;57634;51.136;17.024;2022-07-29T09:05:18;28.90;29.40
70244;DHT22;57634;51.136;17.024;2022-07-29T09:08:45;28.50;29.70
70244;DHT22;57634;51.136;17.024;2022-07-29T09:11:47;28.30;30.30
70244;DHT22;57634;51.136;17.024;2022-07-29T09:14:49;28.10;30.30
70244;DHT22;57634;51.136;17.024;2022-07-29T09:17:51;27.90;30.60
70244;DHT22;57634;51.136;17.024;2022-07-29T09:20:52;27.70;31.00
70244;DHT22;57634;51.136;17.024;2022-07-29T09:24:08;27.50;31.30
70244;DHT22;57634;51.136;17.024;2022-07-29T09:30:17;27.50;31.80
70244;DHT22;57634;51.136;17.024;2022-07-29T09:33:20;27.60;31.90
70244;DHT22;57634;51.136;17.024;2022-07-29T09:36:49;27.60;31.90
70244;DHT22;57634;51.136;17.024;2022-07-29T09:39:51;27.40;31.80
70244;DHT22;57634;51.136;17.024;2022-07-29T09:42:54;27.10;32.00
70244;DHT22;57634;51.136;17.024;2022-07-29T09:49:12;26.70;33.10
70244;DHT22;57634;51.136;17.024;2022-07-29T09:52:15;26.60;33.30
70244;DHT22;57634;51.136;17.024;2022-07-29T09:55:18;26.50;33.40
70244;DHT22;57634;51.136;17.024;2022-07-29T09:58:21;26.40;33.80
70244;DHT22;57634;51.136;17.024;2022-07-29T10:01:29;26.40;33.90
70244;DHT22;57634;51.136;17.024;2022-07-29T10:04:56;26.40;33.90
70244;DHT22;57634;51.136;17.024;2022-07-29T10:07:58;26.50;34.00
70244;DHT22;57634;51.136;17.024;2022-07-29T10:14:16;26.70;34.20
70244;DHT22;57634;51.136;17.024;2022-07-29T10:17:17;26.90;34.20
70244;DHT22;57634;51.136;17.024;2022-07-29T10:20:21;27.20;33.70
70244;DHT22;57634;51.136;17.024;2022-07-29T10:23:23;27.40;33.40
70244;DHT22;57634;51.136;17.024;2022-07-29T10:26:25;27.40;33.10
70244;DHT22;57634;51.136;17.024;2022-07-29T10:29:26;27.40;33.00
70244;DHT22;57634;51.136;17.024;2022-07-29T10:42:37;27.50;33.00
70244;DHT22;57634;51.136;17.024;2022-07-29T10:45:41;27.50;33.00
70244;DHT22;57634;51.136;17.024;2022-07-29T10:52:21;27.50;33.10
70244;DHT22;57634;51.136;17.024;2022-07-29T10:55:36;27.70;33.00
70244;DHT22;57634;51.136;17.024;2022-07-29T10:58:43;27.70;32.70
70244;DHT22;57634;51.136;17.024;2022-07-29T11:01:45;27.70;32.50
70244;DHT22;57634;51.136;17.024;2022-07-29T11:11:47;27.70;32.80
70244;DHT22;57634;51.136;17.024;2022-07-29T11:14:55;27.70;33.20
70244;DHT22;57634;51.136;17.024;2022-07-29T11:18:03;27.60;33.30
70244;DHT22;57634;51.136;17.024;2022-07-29T11:21:34;27.70;33.20
70244;DHT22;57634;51.136;17.024;2022-07-29T11:24:22;27.70;33.00
70244;DHT22;57634;51.136;17.024;2022-07-29T11:27:31;27.80;33.10
70244;DHT22;57634;51.136;17.024;2022-07-29T11:31:07;27.80;33.00
70244;DHT22;57634;51.136;17.024;2022-07-29T11:37:24;27.90;33.10
70244;DHT22;57634;51.136;17.024;2022-07-29T11:40:27;27.80;32.80
70244;DHT22;57634;51.136;17.024;2022-07-29T11:46:49;27.60;33.20
70244;DHT22;57634;51.136;17.024;2022-07-29T11:53:29;27.50;33.50
70244;DHT22;57634;51.136;17.024;2022-07-29T11:56:32;27.60;33.60
70244;DHT22;57634;51.136;17.024;2022-07-29T11:59:40;27.60;33.30
70244;DHT22;57634;51.136;17.024;2022-07-29T12:02:43;27.60;33.30
70244;DHT22;57634;51.136;17.024;2022-07-29T12:05:45;27.60;33.30
70244;DHT22;57634;51.136;17.024;2022-07-29T12:08:46;27.60;33.30
70244;DHT22;57634;51.136;17.024;2022-07-29T12:11:48;27.60;33.20
70244;DHT22;57634;51.136;17.024;2022-07-29T12:14:50;27.60;33.10
70244;DHT22;57634;51.136;17.024;2022-07-29T12:18:20;27.60;33.00
70244;DHT22;57634;51.136;17.024;2022-07-29T12:21:22;27.70;33.30
70244;DHT22;57634;51.136;17.024;2022-07-29T12:24:24;27.70;33.20
70244;DHT22;57634;51.136;17.024;2022-07-29T12:27:25;27.80;33.10
70244;DHT22;57634;51.136;17.024;2022-07-29T12:30:43;27.90;33.10
70244;DHT22;57634;51.136;17.024;2022-07-29T12:33:40;28.00;33.00
70244;DHT22;57634;51.136;17.024;2022-07-29T12:36:43;28.00;32.70
70244;DHT22;57634;51.136;17.024;2022-07-29T12:39:45;27.90;32.70
70244;DHT22;57634;51.136;17.024;2022-07-29T12:46:28;27.80;32.70
70244;DHT22;57634;51.136;17.024;2022-07-29T12:49:29;27.70;33.00
70244;DHT22;57634;51.136;17.024;2022-07-29T12:52:33;27.80;33.10
70244;DHT22;57634;51.136;17.024;2022-07-29T12:55:42;27.80;33.20
70244;DHT22;57634;51.136;17.024;2022-07-29T12:58:45;27.90;33.30
70244;DHT22;57634;51.136;17.024;2022-07-29T13:01:49;28.00;33.20
70244;DHT22;57634;51.136;17.024;2022-07-29T13:04:59;28.20;33.00
70244;DHT22;57634;51.136;17.024;2022-07-29T13:11:45;28.00;33.10
70244;DHT22;57634;51.136;17.024;2022-07-29T13:14:48;27.90;33.60
70244;DHT22;57634;51.136;17.024;2022-07-29T13:17:50;27.90;33.50
70244;DHT22;57634;51.136;17.024;2022-07-29T13:20:52;27.90;33.60
70244;DHT22;57634;51.136;17.024;2022-07-29T13:23:54;27.80;33.60
70244;DHT22;57634;51.136;17.024;2022-07-29T13:26:55;27.60;33.70
70244;DHT22;57634;51.136;17.024;2022-07-29T13:29:57;27.50;34.00
70244;DHT22;57634;51.136;17.024;2022-07-29T13:33:00;27.40;34.00
70244;DHT22;57634;51.136;17.024;2022-07-29T13:36:01;27.30;34.20
70244;DHT22;57634;51.136;17.024;2022-07-29T13:39:03;27.40;34.30
70244;DHT22;57634;51.136;17.024;2022-07-29T13:42:06;27.50;34.30
70244;DHT22;57634;51.136;17.024;2022-07-29T13:45:37;27.60;34.10
70244;DHT22;57634;51.136;17.024;2022-07-29T13:48:39;27.70;34.30
70244;DHT22;57634;51.136;17.024;2022-07-29T13:51:41;27.60;34.20
70244;DHT22;57634;51.136;17.024;2022-07-29T13:54:43;27.70;34.20
70244;DHT22;57634;51.136;17.024;2022-07-29T13:57:44;27.70;34.30
70244;DHT22;57634;51.136;17.024;2022-07-29T14:00:46;27.70;34.50
70244;DHT22;57634;51.136;17.024;2022-07-29T14:03:48;27.70;34.40
70244;DHT22;57634;51.136;17.024;2022-07-29T14:06:50;27.80;34.40
70244;DHT22;57634;51.136;17.024;2022-07-29T14:09:51;27.70;34.20
70244;DHT22;57634;51.136;17.024;2022-07-29T14:12:53;27.60;34.40
70244;DHT22;57634;51.136;17.024;2022-07-29T14:15:55;27.50;34.50
70244;DHT22;57634;51.136;17.024;2022-07-29T14:18:56;27.60;34.60
70244;DHT22;57634;51.136;17.024;2022-07-29T14:21:58;27.60;34.70
70244;DHT22;57634;51.136;17.024;2022-07-29T14:25:27;27.60;34.70
70244;DHT22;57634;51.136;17.024;2022-07-29T14:28:28;27.60;34.90
70244;DHT22;57634;51.136;17.024;2022-07-29T14:31:30;27.60;35.00
70244;DHT22;57634;51.136;17.024;2022-07-29T14:34:31;27.70;35.00
70244;DHT22;57634;51.136;17.024;2022-07-29T14:37:32;27.60;34.90
70244;DHT22;57634;51.136;17.024;2022-07-29T14:40:36;27.60;35.00
70244;DHT22;57634;51.136;17.024;2022-07-29T14:43:37;27.60;35.00
70244;DHT22;57634;51.136;17.024;2022-07-29T14:46:39;27.50;35.00
70244;DHT22;57634;51.136;17.024;2022-07-29T14:49:41;27.50;35.10
70244;DHT22;57634;51.136;17.024;2022-07-29T14:52:42;27.50;35.20
70244;DHT22;57634;51.136;17.024;2022-07-29T14:55:44;27.40;35.30
70244;DHT22;57634;51.136;17.024;2022-07-29T14:58:45;27.50;35.40
70244;DHT22;57634;51.136;17.024;2022-07-29T15:01:48;27.40;35.20
70244;DHT22;57634;51.136;17.024;2022-07-29T15:05:18;27.50;35.20
70244;DHT22;57634;51.136;17.024;2022-07-29T15:08:20;27.40;35.30
70244;DHT22;57634;51.136;17.024;2022-07-29T15:11:21;27.30;35.60
70244;DHT22;57634;51.136;17.024;2022-07-29T15:14:23;27.20;35.60
70244;DHT22;57634;51.136;17.024;2022-07-29T15:17:24;27.10;35.90
70244;DHT22;57634;51.136;17.024;2022-07-29T15:20:26;27.00;36.10
70244;DHT22;57634;51.136;17.024;2022-07-29T15:23:28;26.90;36.30
70244;DHT22;57634;51.136;17.024;2022-07-29T15:26:29;26.80;36.60
70244;DHT22;57634;51.136;17.024;2022-07-29T15:29:30;26.80;36.90
70244;DHT22;57634;51.136;17.024;2022-07-29T15:32:32;26.80;37.10
70244;DHT22;57634;51.136;17.024;2022-07-29T15:35:33;26.80;37.10
70244;DHT22;57634;51.136;17.024;2022-07-29T15:38:35;26.90;37.00
70244;DHT22;57634;51.136;17.024;2022-07-29T15:41:36;27.00;36.90
70244;DHT22;57634;51.136;17.024;2022-07-29T15:44:38;27.00;36.80
70244;DHT22;57634;51.136;17.024;2022-07-29T15:48:07;27.00;36.80
70244;DHT22;57634;51.136;17.024;2022-07-29T15:51:08;27.00;37.00
70244;DHT22;57634;51.136;17.024;2022-07-29T15:54:10;27.00;37.20
70244;DHT22;57634;51.136;17.024;2022-07-29T15:57:11;26.90;37.20
70244;DHT22;57634;51.136;17.024;2022-07-29T16:00:13;26.80;37.30
70244;DHT22;57634;51.136;17.024;2022-07-29T16:03:18;26.80;37.30
70244;DHT22;57634;51.136;17.024;2022-07-29T16:06:21;26.70;37.50
70244;DHT22;57634;51.136;17.024;2022-07-29T16:09:22;26.70;37.80
70244;DHT22;57634;51.136;17.024;2022-07-29T16:12:24;26.70;37.90
70244;DHT22;57634;51.136;17.024;2022-07-29T16:15:26;26.80;37.70
70244;DHT22;57634;51.136;17.024;2022-07-29T16:18:27;26.70;37.70
70244;DHT22;57634;51.136;17.024;2022-07-29T16:21:29;26.70;37.90
70244;DHT22;57634;51.136;17.024;2022-07-29T16:24:59;26.70;37.80
70244;DHT22;57634;51.136;17.024;2022-07-29T16:28:01;26.80;38.00
70244;DHT22;57634;51.136;17.024;2022-07-29T16:32:26;26.90;38.00
70244;DHT22;57634;51.136;17.024;2022-07-29T16:35:28;26.80;38.00
70244;DHT22;57634;51.136;17.024;2022-07-29T16:38:30;26.80;38.10
70244;DHT22;57634;51.136;17.024;2022-07-29T16:41:31;26.80;38.20
70244;DHT22;57634;51.136;17.024;2022-07-29T16:44:33;26.80;38.20
70244;DHT22;57634;51.136;17.024;2022-07-29T16:47:35;26.80;38.20
70244;DHT22;57634;51.136;17.024;2022-07-29T16:50:37;26.70;38.30
70244;DHT22;57634;51.136;17.024;2022-07-29T16:53:40;26.70;38.30
70244;DHT22;57634;51.136;17.024;2022-07-29T16:56:42;26.70;38.30
70244;DHT22;57634;51.136;17.024;2022-07-29T16:59:44;26.70;39.10
70244;DHT22;57634;51.136;17.024;2022-07-29T17:02:45;26.70;39.70
70244;DHT22;57634;51.136;17.024;2022-07-29T17:05:46;26.70;40.00
70244;DHT22;57634;51.136;17.024;2022-07-29T17:08:48;26.70;40.00
70244;DHT22;57634;51.136;17.024;2022-07-29T17:12:15;26.60;40.20
70244;DHT22;57634;51.136;17.024;2022-07-29T17:15:17;26.50;40.60
70244;DHT22;57634;51.136;17.024;2022-07-29T17:18:18;26.40;40.80
70244;DHT22;57634;51.136;17.024;2022-07-29T17:21:20;26.40;41.00
70244;DHT22;57634;51.136;17.024;2022-07-29T17:24:21;26.30;41.10
70244;DHT22;57634;51.136;17.024;2022-07-29T17:27:23;26.30;41.30
70244;DHT22;57634;51.136;17.024;2022-07-29T17:30:25;26.20;41.20
70244;DHT22;57634;51.136;17.024;2022-07-29T17:33:28;26.10;41.40
70244;DHT22;57634;51.136;17.024;2022-07-29T17:36:29;26.10;41.60
70244;DHT22;57634;51.136;17.024;2022-07-29T17:39:31;26.00;41.90
70244;DHT22;57634;51.136;17.024;2022-07-29T17:42:34;26.00;42.30
70244;DHT22;57634;51.136;17.024;2022-07-29T17:45:36;25.90;42.70
70244;DHT22;57634;51.136;17.024;2022-07-29T17:48:38;25.90;43.10
70244;DHT22;57634;51.136;17.024;2022-07-29T17:52:06;25.80;43.30
70244;DHT22;57634;51.136;17.024;2022-07-29T17:55:07;25.80;43.80
70244;DHT22;57634;51.136;17.024;2022-07-29T17:58:10;25.70;44.20
70244;DHT22;57634;51.136;17.024;2022-07-29T18:01:13;25.50;44.40
70244;DHT22;57634;51.136;17.024;2022-07-29T18:04:15;25.50;44.70
70244;DHT22;57634;51.136;17.024;2022-07-29T18:07:20;25.40;44.80
70244;DHT22;57634;51.136;17.024;2022-07-29T18:10:22;25.40;45.10
70244;DHT22;57634;51.136;17.024;2022-07-29T18:13:24;25.30;45.20
70244;DHT22;57634;51.136;17.024;2022-07-29T18:16:26;25.20;45.40
70244;DHT22;57634;51.136;17.024;2022-07-29T18:19:27;25.20;45.60
70244;DHT22;57634;51.136;17.024;2022-07-29T18:22:29;25.10;45.80
70244;DHT22;57634;51.136;17.024;2022-07-29T18:25:31;25.00;46.00
70244;DHT22;57634;51.136;17.024;2022-07-29T18:29:00;25.00;46.20
70244;DHT22;57634;51.136;17.024;2022-07-29T18:32:01;24.90;46.70
70244;DHT22;57634;51.136;17.024;2022-07-29T18:35:03;24.80;46.90
70244;DHT22;57634;51.136;17.024;2022-07-29T18:38:06;24.70;47.20
70244;DHT22;57634;51.136;17.024;2022-07-29T18:41:07;24.70;47.40
70244;DHT22;57634;51.136;17.024;2022-07-29T18:44:08;24.70;47.60
70244;DHT22;57634;51.136;17.024;2022-07-29T18:47:16;24.70;47.80
70244;DHT22;57634;51.136;17.024;2022-07-29T18:50:18;24.60;47.90
70244;DHT22;57634;51.136;17.024;2022-07-29T18:53:22;24.50;48.00
70244;DHT22;57634;51.136;17.024;2022-07-29T18:56:23;24.50;48.10
70244;DHT22;57634;51.136;17.024;2022-07-29T18:59:25;24.50;48.30
70244;DHT22;57634;51.136;17.024;2022-07-29T19:02:26;24.50;48.40
70244;DHT22;57634;51.136;17.024;2022-07-29T19:05:54;24.50;48.60
70244;DHT22;57634;51.136;17.024;2022-07-29T19:08:55;24.40;48.80
70244;DHT22;57634;51.136;17.024;2022-07-29T19:11:57;24.30;48.90
70244;DHT22;57634;51.136;17.024;2022-07-29T19:14:58;24.30;49.20
70244;DHT22;57634;51.136;17.024;2022-07-29T19:18:00;24.20;49.30
70244;DHT22;57634;51.136;17.024;2022-07-29T19:21:01;24.20;49.50
70244;DHT22;57634;51.136;17.024;2022-07-29T19:24:03;24.10;49.70
70244;DHT22;57634;51.136;17.024;2022-07-29T19:27:04;24.00;49.90
70244;DHT22;57634;51.136;17.024;2022-07-29T19:30:06;24.00;50.20
70244;DHT22;57634;51.136;17.024;2022-07-29T19:33:09;23.90;50.40
70244;DHT22;57634;51.136;17.024;2022-07-29T19:36:15;23.80;50.60
70244;DHT22;57634;51.136;17.024;2022-07-29T19:39:16;23.80;50.90
70244;DHT22;57634;51.136;17.024;2022-07-29T19:42:17;23.80;51.10
70244;DHT22;57634;51.136;17.024;2022-07-29T19:45:43;23.70;51.20
70244;DHT22;57634;51.136;17.024;2022-07-29T19:48:46;23.70;51.50
70244;DHT22;57634;51.136;17.024;2022-07-29T19:51:47;23.60;51.60
70244;DHT22;57634;51.136;17.024;2022-07-29T19:54:48;23.60;51.90
70244;DHT22;57634;51.136;17.024;2022-07-29T19:57:50;23.50;52.10
70244;DHT22;57634;51.136;17.024;2022-07-29T20:00:53;23.50;52.20
70244;DHT22;57634;51.136;17.024;2022-07-29T20:03:54;23.40;52.30
70244;DHT22;57634;51.136;17.024;2022-07-29T20:06:55;23.40;52.50
70244;DHT22;57634;51.136;17.024;2022-07-29T20:10:01;23.30;52.60
70244;DHT22;57634;51.136;17.024;2022-07-29T20:13:03;23.30;52.80
70244;DHT22;57634;51.136;17.024;2022-07-29T20:16:04;23.30;53.00
70244;DHT22;57634;51.136;17.024;2022-07-29T20:19:08;23.30;53.10